createdAt,value
2023-05-18T00:10:44.684Z,8.7
2023-05-18T00:25:54.939Z,8.5
2023-05-18T00:41:04.641Z,8.3
2023-05-18T00:56:13.839Z,8.2
2023-05-18T01:11:23.866Z,8
2023-05-18T01:26:34.498Z,7.9
2023-05-18T01:41:43.876Z,7.7
2023-05-18T01:56:52.980Z,7.6
2023-05-18T02:12:02.607Z,7.4
2023-05-18T02:27:11.779Z,7.2
2023-05-18T02:42:21.440Z,7.1
2023-05-18T02:57:31.464Z,7
2023-05-18T03:12:40.820Z,6.9
2023-05-18T03:27:50.744Z,6.8
2023-05-18T03:43:03.492Z,6.7
2023-05-18T03:58:12.590Z,6.7
2023-05-18T04:13:22.485Z,6.7
2023-05-18T04:28:31.903Z,6.7
2023-05-18T04:43:41.761Z,6.8
2023-05-18T04:58:51.591Z,6.9
2023-05-18T05:14:01.543Z,7.2
2023-05-18T05:29:14.570Z,7.5
2023-05-18T05:44:24.188Z,7.6
2023-05-18T05:59:33.839Z,7.9
2023-05-18T06:14:43.923Z,8.1
2023-05-18T06:29:53.912Z,8.4
2023-05-18T06:45:04.039Z,8.7
2023-05-18T07:00:13.666Z,8.9
2023-05-18T07:15:23.522Z,9.1
2023-05-18T07:30:33.520Z,9.4
2023-05-18T07:45:43.250Z,9.7
2023-05-18T08:00:53.236Z,10.1
2023-05-18T08:16:11.603Z,10.5
2023-05-18T08:31:23.052Z,10.7
2023-05-18T08:46:32.813Z,10.9
2023-05-18T09:01:43.270Z,11.1
2023-05-18T09:16:53.672Z,11.4
2023-05-18T09:32:03.614Z,11.6
2023-05-18T09:47:13.930Z,11.7
2023-05-18T10:02:23.366Z,11.8
2023-05-18T10:17:33.148Z,11.9
2023-05-18T10:32:43.813Z,12.2
2023-05-18T10:47:53.966Z,12.6
2023-05-18T11:03:04.560Z,12.9
2023-05-18T11:18:14.392Z,13.1
2023-05-18T11:33:24.692Z,13.5
2023-05-18T11:48:36.333Z,13.9
2023-05-18T12:03:48.637Z,14.4
2023-05-18T12:19:00.336Z,17.4
2023-05-18T12:34:11.443Z,17.3
2023-05-18T12:49:21.858Z,17.9
2023-05-18T13:04:31.625Z,18.3
2023-05-18T13:19:41.563Z,18.9
2023-05-18T13:34:52.361Z,19.5
2023-05-18T13:50:02.870Z,20
2023-05-18T14:05:13.883Z,20.6
2023-05-18T14:20:23.940Z,21.1
2023-05-18T14:35:34.053Z,21.9
2023-05-18T14:50:44.207Z,22.4
2023-05-18T15:05:53.751Z,21.9
2023-05-18T15:21:03.337Z,21.3
2023-05-18T15:36:12.693Z,20.5
2023-05-18T15:51:22.796Z,20.9
2023-05-18T16:06:33.068Z,20.8
2023-05-18T16:21:42.661Z,20.4
2023-05-18T16:36:52.079Z,20.8
2023-05-18T16:52:01.364Z,19.8
2023-05-18T17:07:10.300Z,18.9
2023-05-18T17:22:19.777Z,18.2
2023-05-18T17:37:29.167Z,17.9
2023-05-18T17:52:39.614Z,17.6
2023-05-18T18:07:49.115Z,17.3
2023-05-18T18:22:59.339Z,17
2023-05-18T18:38:08.930Z,16.6
2023-05-18T18:53:18.100Z,16.4
2023-05-18T19:08:27.640Z,16
2023-05-18T19:23:39.789Z,15.7
2023-05-18T19:38:49.209Z,15.4
2023-05-18T19:53:59.257Z,15.2
2023-05-18T20:09:09.186Z,15
2023-05-18T20:24:19.427Z,14.7
2023-05-18T20:39:28.769Z,14.5
2023-05-18T20:54:38.053Z,14.2
2023-05-18T21:09:47.986Z,14
2023-05-18T21:24:57.527Z,13.7
2023-05-18T21:40:07.895Z,13.5
2023-05-18T21:55:17.527Z,13.3
2023-05-18T22:10:27.033Z,13.1
2023-05-18T22:25:37.278Z,12.9
2023-05-18T22:40:47.386Z,12.7
2023-05-18T22:55:56.883Z,12.5
2023-05-18T23:11:06.490Z,12.4
2023-05-18T23:26:15.824Z,12.2
2023-05-18T23:41:25.390Z,12.1
2023-05-18T23:56:34.883Z,11.9
